sensor_id;sensor_type;location;lat;lon;timestamp;P1;durP1;ratioP1;P2;durP2;ratioP2
38435;SDS011;24220;48.168;14.024;2023-04-03T00:01:18;3.50;;;3.20;;
38435;SDS011;24220;48.168;14.024;2023-04-03T00:03:46;3.88;;;2.88;;
38435;SDS011;24220;48.168;14.024;2023-04-03T00:06:15;3.45;;;3.15;;
38435;SDS011;24220;48.168;14.024;2023-04-03T00:08:45;3.58;;;2.97;;
38435;SDS011;24220;48.168;14.024;2023-04-03T00:11:12;3.30;;;3.00;;
38435;SDS011;24220;48.168;14.024;2023-04-03T00:13:42;3.20;;;2.95;;
38435;SDS011;24220;48.168;14.024;2023-04-03T00:16:12;4.30;;;3.00;;
38435;SDS011;24220;48.168;14.024;2023-04-03T00:18:44;3.28;;;2.95;;
38435;SDS011;24220;48.168;14.024;2023-04-03T00:21:14;4.05;;;3.10;;
38435;SDS011;24220;48.168;14.024;2023-04-03T00:23:42;3.30;;;3.00;;
38435;SDS011;24220;48.168;14.024;2023-04-03T00:26:11;2.88;;;2.63;;
38435;SDS011;24220;48.168;14.024;2023-04-03T00:28:41;3.88;;;3.20;;
38435;SDS011;24220;48.168;14.024;2023-04-03T00:31:13;3.80;;;3.05;;
38435;SDS011;24220;48.168;14.024;2023-04-03T00:33:42;3.25;;;2.95;;
38435;SDS011;24220;48.168;14.024;2023-04-03T00:36:09;3.60;;;3.20;;
38435;SDS011;24220;48.168;14.024;2023-04-03T00:38:38;3.30;;;3.00;;
38435;SDS011;24220;48.168;14.024;2023-04-03T00:41:05;3.72;;;3.38;;
38435;SDS011;24220;48.168;14.024;2023-04-03T00:43:36;3.10;;;2.80;;
38435;SDS011;24220;48.168;14.024;2023-04-03T00:46:03;3.05;;;2.78;;
38435;SDS011;24220;48.168;14.024;2023-04-03T00:48:31;3.75;;;2.97;;
38435;SDS011;24220;48.168;14.024;2023-04-03T00:51:03;3.88;;;3.33;;
38435;SDS011;24220;48.168;14.024;2023-04-03T00:53:55;3.58;;;3.20;;
38435;SDS011;24220;48.168;14.024;2023-04-03T00:56:25;3.30;;;2.92;;
38435;SDS011;24220;48.168;14.024;2023-04-03T00:58:59;4.78;;;3.40;;
38435;SDS011;24220;48.168;14.024;2023-04-03T01:01:30;4.00;;;3.53;;
38435;SDS011;24220;48.168;14.024;2023-04-03T01:04:01;3.72;;;3.22;;
38435;SDS011;24220;48.168;14.024;2023-04-03T01:06:31;3.97;;;3.20;;
38435;SDS011;24220;48.168;14.024;2023-04-03T01:09:02;3.15;;;2.58;;
38435;SDS011;24220;48.168;14.024;2023-04-03T01:11:33;4.20;;;3.35;;
38435;SDS011;24220;48.168;14.024;2023-04-03T01:14:00;3.40;;;2.80;;
38435;SDS011;24220;48.168;14.024;2023-04-03T01:16:29;3.20;;;2.90;;
38435;SDS011;24220;48.168;14.024;2023-04-03T01:18:58;4.22;;;3.05;;
38435;SDS011;24220;48.168;14.024;2023-04-03T01:24:37;3.08;;;2.83;;
38435;SDS011;24220;48.168;14.024;2023-04-03T01:27:10;3.10;;;2.78;;
38435;SDS011;24220;48.168;14.024;2023-04-03T01:29:40;3.38;;;3.10;;
38435;SDS011;24220;48.168;14.024;2023-04-03T01:32:10;3.25;;;2.95;;
38435;SDS011;24220;48.168;14.024;2023-04-03T01:34:37;4.60;;;3.00;;
38435;SDS011;24220;48.168;14.024;2023-04-03T01:37:04;3.40;;;3.00;;
38435;SDS011;24220;48.168;14.024;2023-04-03T01:39:34;3.83;;;2.80;;
38435;SDS011;24220;48.168;14.024;2023-04-03T01:42:04;3.33;;;2.80;;
38435;SDS011;24220;48.168;14.024;2023-04-03T01:44:33;3.22;;;2.92;;
38435;SDS011;24220;48.168;14.024;2023-04-03T01:47:01;3.20;;;2.83;;
38435;SDS011;24220;48.168;14.024;2023-04-03T01:49:28;3.38;;;3.00;;
38435;SDS011;24220;48.168;14.024;2023-04-03T01:51:55;4.50;;;3.00;;
38435;SDS011;24220;48.168;14.024;2023-04-03T01:54:22;3.10;;;2.80;;
38435;SDS011;24220;48.168;14.024;2023-04-03T01:56:50;3.35;;;3.05;;
38435;SDS011;24220;48.168;14.024;2023-04-03T01:59:17;2.95;;;2.65;;
38435;SDS011;24220;48.168;14.024;2023-04-03T02:01:45;4.30;;;2.92;;
38435;SDS011;24220;48.168;14.024;2023-04-03T02:04:13;3.45;;;2.75;;
38435;SDS011;24220;48.168;14.024;2023-04-03T02:06:40;3.22;;;2.90;;
38435;SDS011;24220;48.168;14.024;2023-04-03T02:09:07;3.85;;;3.10;;
38435;SDS011;24220;48.168;14.024;2023-04-03T02:11:35;3.38;;;3.08;;
38435;SDS011;24220;48.168;14.024;2023-04-03T02:14:02;3.45;;;2.78;;
38435;SDS011;24220;48.168;14.024;2023-04-03T02:16:29;3.28;;;2.53;;
38435;SDS011;24220;48.168;14.024;2023-04-03T02:18:59;3.33;;;3.03;;
38435;SDS011;24220;48.168;14.024;2023-04-03T02:21:26;2.90;;;2.60;;
38435;SDS011;24220;48.168;14.024;2023-04-03T02:23:54;5.05;;;2.60;;
38435;SDS011;24220;48.168;14.024;2023-04-03T02:26:21;3.72;;;2.92;;
38435;SDS011;24220;48.168;14.024;2023-04-03T02:28:51;3.50;;;2.40;;
38435;SDS011;24220;48.168;14.024;2023-04-03T02:31:18;2.60;;;2.40;;
38435;SDS011;24220;48.168;14.024;2023-04-03T02:33:47;3.38;;;2.90;;
38435;SDS011;24220;48.168;14.024;2023-04-03T02:36:14;4.65;;;2.53;;
38435;SDS011;24220;48.168;14.024;2023-04-03T02:38:42;2.80;;;2.60;;
38435;SDS011;24220;48.168;14.024;2023-04-03T02:41:12;2.60;;;2.40;;
38435;SDS011;24220;48.168;14.024;2023-04-03T02:43:42;3.20;;;2.90;;
38435;SDS011;24220;48.168;14.024;2023-04-03T02:46:09;3.88;;;2.83;;
38435;SDS011;24220;48.168;14.024;2023-04-03T02:48:37;2.95;;;2.70;;
38435;SDS011;24220;48.168;14.024;2023-04-03T02:51:04;3.88;;;2.90;;
38435;SDS011;24220;48.168;14.024;2023-04-03T02:53:31;2.60;;;2.30;;
38435;SDS011;24220;48.168;14.024;2023-04-03T02:55:59;5.28;;;2.72;;
38435;SDS011;24220;48.168;14.024;2023-04-03T02:58:26;3.35;;;2.50;;
38435;SDS011;24220;48.168;14.024;2023-04-03T03:00:53;3.40;;;2.72;;
38435;SDS011;24220;48.168;14.024;2023-04-03T03:03:21;2.50;;;2.30;;
38435;SDS011;24220;48.168;14.024;2023-04-03T03:05:48;2.97;;;2.53;;
38435;SDS011;24220;48.168;14.024;2023-04-03T03:08:15;4.55;;;2.30;;
38435;SDS011;24220;48.168;14.024;2023-04-03T03:10:46;2.63;;;2.40;;
38435;SDS011;24220;48.168;14.024;2023-04-03T03:13:14;2.40;;;2.20;;
38435;SDS011;24220;48.168;14.024;2023-04-03T03:15:41;2.55;;;2.35;;
38435;SDS011;24220;48.168;14.024;2023-04-03T03:18:08;2.92;;;2.40;;
38435;SDS011;24220;48.168;14.024;2023-04-03T03:20:36;3.30;;;3.00;;
38435;SDS011;24220;48.168;14.024;2023-04-03T03:23:03;3.33;;;2.35;;
38435;SDS011;24220;48.168;14.024;2023-04-03T03:25:31;2.60;;;2.40;;
38435;SDS011;24220;48.168;14.024;2023-04-03T03:28:00;2.83;;;2.47;;
38435;SDS011;24220;48.168;14.024;2023-04-03T03:30:28;2.60;;;2.40;;
38435;SDS011;24220;48.168;14.024;2023-04-03T03:32:55;3.35;;;2.83;;
38435;SDS011;24220;48.168;14.024;2023-04-03T03:35:22;2.50;;;2.30;;
38435;SDS011;24220;48.168;14.024;2023-04-03T03:37:52;2.75;;;2.53;;
38435;SDS011;24220;48.168;14.024;2023-04-03T03:40:19;2.65;;;2.42;;
38435;SDS011;24220;48.168;14.024;2023-04-03T03:42:47;5.05;;;2.88;;
38435;SDS011;24220;48.168;14.024;2023-04-03T03:45:16;3.88;;;2.80;;
38435;SDS011;24220;48.168;14.024;2023-04-03T03:47:46;3.75;;;3.08;;
38435;SDS011;24220;48.168;14.024;2023-04-03T03:50:13;3.28;;;2.83;;
38435;SDS011;24220;48.168;14.024;2023-04-03T03:52:41;4.25;;;3.00;;
38435;SDS011;24220;48.168;14.024;2023-04-03T03:55:08;3.00;;;2.60;;
38435;SDS011;24220;48.168;14.024;2023-04-03T03:57:38;4.85;;;3.67;;
38435;SDS011;24220;48.168;14.024;2023-04-03T04:00:05;3.85;;;3.45;;
38435;SDS011;24220;48.168;14.024;2023-04-03T04:02:33;4.47;;;3.55;;
38435;SDS011;24220;48.168;14.024;2023-04-03T04:05:01;5.07;;;3.67;;
38435;SDS011;24220;48.168;14.024;2023-04-03T04:07:28;2.92;;;2.67;;
38435;SDS011;24220;48.168;14.024;2023-04-03T04:09:56;5.47;;;3.42;;
38435;SDS011;24220;48.168;14.024;2023-04-03T04:12:23;4.00;;;3.47;;
38435;SDS011;24220;48.168;14.024;2023-04-03T04:14:53;3.03;;;2.72;;
38435;SDS011;24220;48.168;14.024;2023-04-03T04:17:20;3.80;;;3.13;;
38435;SDS011;24220;48.168;14.024;2023-04-03T04:19:48;6.65;;;4.75;;
38435;SDS011;24220;48.168;14.024;2023-04-03T04:22:16;5.20;;;3.55;;
38435;SDS011;24220;48.168;14.024;2023-04-03T04:24:43;5.35;;;3.75;;
38435;SDS011;24220;48.168;14.024;2023-04-03T04:27:12;4.07;;;3.53;;
38435;SDS011;24220;48.168;14.024;2023-04-03T04:29:40;4.45;;;3.38;;
38435;SDS011;24220;48.168;14.024;2023-04-03T04:32:07;3.97;;;2.90;;
38435;SDS011;24220;48.168;14.024;2023-04-03T04:34:37;3.33;;;3.03;;
38435;SDS011;24220;48.168;14.024;2023-04-03T04:37:05;3.13;;;2.72;;
38435;SDS011;24220;48.168;14.024;2023-04-03T04:39:35;2.97;;;2.42;;
38435;SDS011;24220;48.168;14.024;2023-04-03T04:42:02;4.43;;;3.38;;
38435;SDS011;24220;48.168;14.024;2023-04-03T04:44:30;3.97;;;3.03;;
38435;SDS011;24220;48.168;14.024;2023-04-03T04:46:57;3.92;;;3.10;;
38435;SDS011;24220;48.168;14.024;2023-04-03T04:49:24;3.75;;;2.85;;
38435;SDS011;24220;48.168;14.024;2023-04-03T04:51:54;4.65;;;3.50;;
38435;SDS011;24220;48.168;14.024;2023-04-03T04:54:22;3.58;;;3.03;;
38435;SDS011;24220;48.168;14.024;2023-04-03T04:56:49;3.30;;;3.00;;
38435;SDS011;24220;48.168;14.024;2023-04-03T04:59:16;3.72;;;3.22;;
38435;SDS011;24220;48.168;14.024;2023-04-03T05:01:47;3.92;;;3.30;;
38435;SDS011;24220;48.168;14.024;2023-04-03T05:04:19;5.78;;;3.42;;
38435;SDS011;24220;48.168;14.024;2023-04-03T05:06:46;4.13;;;3.38;;
38435;SDS011;24220;48.168;14.024;2023-04-03T05:09:16;4.05;;;3.17;;
38435;SDS011;24220;48.168;14.024;2023-04-03T05:11:46;6.20;;;3.30;;
38435;SDS011;24220;48.168;14.024;2023-04-03T05:14:16;3.58;;;3.28;;
38435;SDS011;24220;48.168;14.024;2023-04-03T05:16:47;3.70;;;3.25;;
38435;SDS011;24220;48.168;14.024;2023-04-03T05:19:17;5.70;;;3.40;;
38435;SDS011;24220;48.168;14.024;2023-04-03T05:21:44;3.80;;;3.38;;
38435;SDS011;24220;48.168;14.024;2023-04-03T05:24:14;4.43;;;3.58;;
38435;SDS011;24220;48.168;14.024;2023-04-03T05:26:44;4.75;;;3.33;;
38435;SDS011;24220;48.168;14.024;2023-04-03T05:29:14;6.05;;;3.58;;
38435;SDS011;24220;48.168;14.024;2023-04-03T05:31:41;5.25;;;3.45;;
38435;SDS011;24220;48.168;14.024;2023-04-03T05:34:09;4.93;;;3.70;;
38435;SDS011;24220;48.168;14.024;2023-04-03T05:36:36;6.70;;;3.65;;
38435;SDS011;24220;48.168;14.024;2023-04-03T05:39:04;4.43;;;3.58;;
38435;SDS011;24220;48.168;14.024;2023-04-03T05:41:33;5.00;;;3.70;;
38435;SDS011;24220;48.168;14.024;2023-04-03T05:44:03;4.15;;;3.45;;
38435;SDS011;24220;48.168;14.024;2023-04-03T05:46:33;4.30;;;3.85;;
38435;SDS011;24220;48.168;14.024;2023-04-03T05:49:00;4.53;;;3.72;;
38435;SDS011;24220;48.168;14.024;2023-04-03T05:51:36;4.75;;;3.53;;
38435;SDS011;24220;48.168;14.024;2023-04-03T05:54:12;4.72;;;3.75;;
38435;SDS011;24220;48.168;14.024;2023-04-03T05:57:01;5.68;;;3.80;;
38435;SDS011;24220;48.168;14.024;2023-04-03T05:59:28;4.63;;;3.50;;
38435;SDS011;24220;48.168;14.024;2023-04-03T06:01:55;4.95;;;3.70;;
38435;SDS011;24220;48.168;14.024;2023-04-03T06:04:23;3.50;;;3.20;;
38435;SDS011;24220;48.168;14.024;2023-04-03T06:06:54;6.25;;;3.67;;
38435;SDS011;24220;48.168;14.024;2023-04-03T06:09:26;5.07;;;3.42;;
38435;SDS011;24220;48.168;14.024;2023-04-03T06:11:56;4.63;;;3.45;;
38435;SDS011;24220;48.168;14.024;2023-04-03T06:14:25;4.07;;;3.28;;
38435;SDS011;24220;48.168;14.024;2023-04-03T06:16:53;4.45;;;3.45;;
38435;SDS011;24220;48.168;14.024;2023-04-03T06:19:23;4.32;;;3.72;;
38435;SDS011;24220;48.168;14.024;2023-04-03T06:21:53;6.00;;;3.42;;
38435;SDS011;24220;48.168;14.024;2023-04-03T06:24:23;4.00;;;3.30;;
38435;SDS011;24220;48.168;14.024;2023-04-03T06:26:52;4.07;;;3.50;;
38435;SDS011;24220;48.168;14.024;2023-04-03T06:29:22;4.35;;;3.40;;
38435;SDS011;24220;48.168;14.024;2023-04-03T06:31:50;3.88;;;3.58;;
38435;SDS011;24220;48.168;14.024;2023-04-03T06:34:18;4.00;;;3.60;;
38435;SDS011;24220;48.168;14.024;2023-04-03T06:36:45;4.45;;;3.40;;
38435;SDS011;24220;48.168;14.024;2023-04-03T06:39:16;5.03;;;3.38;;
38435;SDS011;24220;48.168;14.024;2023-04-03T06:41:49;5.95;;;3.75;;
38435;SDS011;24220;48.168;14.024;2023-04-03T06:44:17;7.53;;;3.92;;
38435;SDS011;24220;48.168;14.024;2023-04-03T06:46:45;5.15;;;3.80;;
38435;SDS011;24220;48.168;14.024;2023-04-03T06:49:13;5.60;;;3.65;;
38435;SDS011;24220;48.168;14.024;2023-04-03T06:51:41;4.47;;;4.05;;
38435;SDS011;24220;48.168;14.024;2023-04-03T06:54:09;4.95;;;3.92;;
38435;SDS011;24220;48.168;14.024;2023-04-03T06:56:36;5.25;;;3.63;;
38435;SDS011;24220;48.168;14.024;2023-04-03T06:59:03;5.68;;;4.05;;
38435;SDS011;24220;48.168;14.024;2023-04-03T07:01:33;4.45;;;3.28;;
38435;SDS011;24220;48.168;14.024;2023-04-03T07:04:01;6.35;;;3.78;;
38435;SDS011;24220;48.168;14.024;2023-04-03T07:06:30;3.92;;;3.15;;
38435;SDS011;24220;48.168;14.024;2023-04-03T07:08:59;3.92;;;3.40;;
38435;SDS011;24220;48.168;14.024;2023-04-03T07:11:29;4.32;;;2.70;;
38435;SDS011;24220;48.168;14.024;2023-04-03T07:13:59;4.25;;;2.70;;
38435;SDS011;24220;48.168;14.024;2023-04-03T07:16:29;3.15;;;2.85;;
38435;SDS011;24220;48.168;14.024;2023-04-03T07:18:59;4.00;;;2.83;;
38435;SDS011;24220;48.168;14.024;2023-04-03T07:21:29;3.63;;;2.90;;
38435;SDS011;24220;48.168;14.024;2023-04-03T07:23:57;5.40;;;2.70;;
38435;SDS011;24220;48.168;14.024;2023-04-03T07:26:27;4.65;;;2.78;;
38435;SDS011;24220;48.168;14.024;2023-04-03T07:29:02;3.95;;;2.67;;
38435;SDS011;24220;48.168;14.024;2023-04-03T07:31:29;3.40;;;2.72;;
38435;SDS011;24220;48.168;14.024;2023-04-03T07:34:00;3.55;;;2.83;;
38435;SDS011;24220;48.168;14.024;2023-04-03T07:36:27;3.67;;;2.60;;
38435;SDS011;24220;48.168;14.024;2023-04-03T07:39:02;3.22;;;2.40;;
38435;SDS011;24220;48.168;14.024;2023-04-03T07:41:29;4.72;;;2.63;;
38435;SDS011;24220;48.168;14.024;2023-04-03T07:43:59;3.40;;;2.85;;
38435;SDS011;24220;48.168;14.024;2023-04-03T07:46:27;2.78;;;2.47;;
38435;SDS011;24220;48.168;14.024;2023-04-03T07:48:56;4.55;;;2.83;;
38435;SDS011;24220;48.168;14.024;2023-04-03T07:51:24;3.50;;;2.30;;
38435;SDS011;24220;48.168;14.024;2023-04-03T07:53:57;4.63;;;2.80;;
38435;SDS011;24220;48.168;14.024;2023-04-03T07:56:24;3.85;;;2.47;;
38435;SDS011;24220;48.168;14.024;2023-04-03T07:58:51;5.03;;;2.60;;
38435;SDS011;24220;48.168;14.024;2023-04-03T08:01:20;4.15;;;3.33;;
38435;SDS011;24220;48.168;14.024;2023-04-03T08:03:50;3.75;;;3.45;;
38435;SDS011;24220;48.168;14.024;2023-04-03T08:06:17;4.68;;;3.20;;
38435;SDS011;24220;48.168;14.024;2023-04-03T08:08:58;3.60;;;3.00;;
38435;SDS011;24220;48.168;14.024;2023-04-03T08:11:28;9.68;;;3.13;;
38435;SDS011;24220;48.168;14.024;2023-04-03T08:13:56;3.47;;;2.78;;
38435;SDS011;24220;48.168;14.024;2023-04-03T08:16:24;3.45;;;2.40;;
38435;SDS011;24220;48.168;14.024;2023-04-03T08:18:54;3.13;;;2.13;;
38435;SDS011;24220;48.168;14.024;2023-04-03T08:21:23;3.45;;;2.50;;
38435;SDS011;24220;48.168;14.024;2023-04-03T08:23:51;2.50;;;2.30;;
38435;SDS011;24220;48.168;14.024;2023-04-03T08:26:21;4.90;;;2.63;;
38435;SDS011;24220;48.168;14.024;2023-04-03T08:28:49;2.40;;;2.20;;
38435;SDS011;24220;48.168;14.024;2023-04-03T08:31:17;3.35;;;2.35;;
38435;SDS011;24220;48.168;14.024;2023-04-03T08:33:49;4.30;;;2.53;;
38435;SDS011;24220;48.168;14.024;2023-04-03T08:36:28;3.40;;;2.63;;
38435;SDS011;24220;48.168;14.024;2023-04-03T08:38:56;4.70;;;3.05;;
38435;SDS011;24220;48.168;14.024;2023-04-03T08:41:37;3.78;;;2.83;;
38435;SDS011;24220;48.168;14.024;2023-04-03T08:50:02;4.95;;;3.20;;
38435;SDS011;24220;48.168;14.024;2023-04-03T08:52:47;5.97;;;3.50;;
38435;SDS011;24220;48.168;14.024;2023-04-03T08:57:47;6.88;;;3.20;;
38435;SDS011;24220;48.168;14.024;2023-04-03T09:00:19;5.05;;;3.20;;
38435;SDS011;24220;48.168;14.024;2023-04-03T09:05:19;4.15;;;3.28;;
38435;SDS011;24220;48.168;14.024;2023-04-03T09:07:57;4.85;;;3.70;;
38435;SDS011;24220;48.168;14.024;2023-04-03T09:10:34;4.45;;;3.85;;
38435;SDS011;24220;48.168;14.024;2023-04-03T09:13:13;8.02;;;4.93;;
38435;SDS011;24220;48.168;14.024;2023-04-03T09:15:40;6.70;;;3.70;;
38435;SDS011;24220;48.168;14.024;2023-04-03T09:18:22;4.07;;;3.22;;
38435;SDS011;24220;48.168;14.024;2023-04-03T09:21:13;7.43;;;3.85;;
38435;SDS011;24220;48.168;14.024;2023-04-03T09:23:49;5.63;;;3.53;;
38435;SDS011;24220;48.168;14.024;2023-04-03T09:29:05;4.45;;;3.75;;
38435;SDS011;24220;48.168;14.024;2023-04-03T09:31:38;4.70;;;3.38;;
38435;SDS011;24220;48.168;14.024;2023-04-03T09:36:52;4.30;;;3.45;;
38435;SDS011;24220;48.168;14.024;2023-04-03T09:39:23;3.50;;;3.10;;
38435;SDS011;24220;48.168;14.024;2023-04-03T09:41:58;4.90;;;3.58;;
38435;SDS011;24220;48.168;14.024;2023-04-03T09:44:38;5.57;;;3.15;;
38435;SDS011;24220;48.168;14.024;2023-04-03T09:49:45;5.80;;;2.40;;
38435;SDS011;24220;48.168;14.024;2023-04-03T09:52:25;7.47;;;4.30;;
38435;SDS011;24220;48.168;14.024;2023-04-03T09:54:53;5.65;;;3.03;;
38435;SDS011;24220;48.168;14.024;2023-04-03T09:57:22;7.22;;;4.75;;
38435;SDS011;24220;48.168;14.024;2023-04-03T10:00:03;3.20;;;2.85;;
38435;SDS011;24220;48.168;14.024;2023-04-03T10:02:34;4.90;;;2.40;;
38435;SDS011;24220;48.168;14.024;2023-04-03T10:05:04;2.95;;;2.10;;
38435;SDS011;24220;48.168;14.024;2023-04-03T10:08:29;4.20;;;2.70;;
38435;SDS011;24220;48.168;14.024;2023-04-03T10:13:33;3.83;;;2.30;;
38435;SDS011;24220;48.168;14.024;2023-04-03T10:16:17;3.10;;;2.10;;
38435;SDS011;24220;48.168;14.024;2023-04-03T10:18:49;2.60;;;2.00;;
38435;SDS011;24220;48.168;14.024;2023-04-03T10:24:10;4.60;;;2.33;;
38435;SDS011;24220;48.168;14.024;2023-04-03T10:34:50;2.75;;;2.10;;
38435;SDS011;24220;48.168;14.024;2023-04-03T10:46:08;3.40;;;1.90;;
38435;SDS011;24220;48.168;14.024;2023-04-03T10:51:28;4.88;;;2.30;;
38435;SDS011;24220;48.168;14.024;2023-04-03T10:54:05;2.85;;;1.70;;
38435;SDS011;24220;48.168;14.024;2023-04-03T10:56:47;2.58;;;1.70;;
38435;SDS011;24220;48.168;14.024;2023-04-03T10:59:53;2.58;;;1.77;;
38435;SDS011;24220;48.168;14.024;2023-04-03T11:10:53;2.85;;;2.17;;
38435;SDS011;24220;48.168;14.024;2023-04-03T11:13:30;3.38;;;1.80;;
38435;SDS011;24220;48.168;14.024;2023-04-03T11:16:00;3.53;;;2.20;;
38435;SDS011;24220;48.168;14.024;2023-04-03T11:23:51;3.03;;;2.00;;
38435;SDS011;24220;48.168;14.024;2023-04-03T11:26:21;2.60;;;1.95;;
38435;SDS011;24220;48.168;14.024;2023-04-03T11:28:53;3.90;;;2.30;;
38435;SDS011;24220;48.168;14.024;2023-04-03T11:34:26;3.25;;;2.13;;
38435;SDS011;24220;48.168;14.024;2023-04-03T11:37:13;3.33;;;2.42;;
38435;SDS011;24220;48.168;14.024;2023-04-03T11:39:54;2.67;;;1.90;;
38435;SDS011;24220;48.168;14.024;2023-04-03T11:48:02;3.60;;;2.38;;
38435;SDS011;24220;48.168;14.024;2023-04-03T11:50:54;5.10;;;2.90;;
38435;SDS011;24220;48.168;14.024;2023-04-03T11:55:57;7.18;;;4.70;;
38435;SDS011;24220;48.168;14.024;2023-04-03T11:58:31;6.90;;;4.15;;
38435;SDS011;24220;48.168;14.024;2023-04-03T12:01:01;5.60;;;3.78;;
38435;SDS011;24220;48.168;14.024;2023-04-03T12:03:35;3.17;;;2.60;;
38435;SDS011;24220;48.168;14.024;2023-04-03T12:08:54;4.82;;;3.65;;
38435;SDS011;24220;48.168;14.024;2023-04-03T12:11:28;4.47;;;3.08;;
38435;SDS011;24220;48.168;14.024;2023-04-03T12:19:03;4.47;;;2.78;;
38435;SDS011;24220;48.168;14.024;2023-04-03T12:34:41;6.03;;;2.88;;
38435;SDS011;24220;48.168;14.024;2023-04-03T12:48:37;4.28;;;2.20;;
38435;SDS011;24220;48.168;14.024;2023-04-03T12:51:15;4.00;;;2.63;;
38435;SDS011;24220;48.168;14.024;2023-04-03T12:54:26;3.70;;;2.28;;
38435;SDS011;24220;48.168;14.024;2023-04-03T12:57:12;4.05;;;2.03;;
38435;SDS011;24220;48.168;14.024;2023-04-03T12:59:43;2.80;;;1.95;;
38435;SDS011;24220;48.168;14.024;2023-04-03T13:04:58;3.13;;;2.03;;
38435;SDS011;24220;48.168;14.024;2023-04-03T13:07:38;3.33;;;2.03;;
38435;SDS011;24220;48.168;14.024;2023-04-03T13:12:35;7.63;;;2.25;;
38435;SDS011;24220;48.168;14.024;2023-04-03T13:17:56;4.32;;;2.45;;
38435;SDS011;24220;48.168;14.024;2023-04-03T13:20:28;5.40;;;2.78;;
38435;SDS011;24220;48.168;14.024;2023-04-03T13:25:31;2.47;;;2.15;;
38435;SDS011;24220;48.168;14.024;2023-04-03T13:28:04;2.55;;;1.98;;
38435;SDS011;24220;48.168;14.024;2023-04-03T13:30:40;3.17;;;1.77;;
38435;SDS011;24220;48.168;14.024;2023-04-03T13:33:23;2.28;;;2.00;;
38435;SDS011;24220;48.168;14.024;2023-04-03T13:35:56;3.13;;;2.03;;
38435;SDS011;24220;48.168;14.024;2023-04-03T13:38:28;1.90;;;1.70;;
38435;SDS011;24220;48.168;14.024;2023-04-03T13:41:01;3.63;;;1.80;;
38435;SDS011;24220;48.168;14.024;2023-04-03T13:43:50;2.00;;;1.67;;
38435;SDS011;24220;48.168;14.024;2023-04-03T13:46:27;2.67;;;2.05;;
38435;SDS011;24220;48.168;14.024;2023-04-03T13:48:57;3.00;;;1.92;;
38435;SDS011;24220;48.168;14.024;2023-04-03T13:51:43;3.00;;;1.77;;
38435;SDS011;24220;48.168;14.024;2023-04-03T13:54:20;3.38;;;2.38;;
38435;SDS011;24220;48.168;14.024;2023-04-03T13:56:54;2.58;;;1.90;;
38435;SDS011;24220;48.168;14.024;2023-04-03T13:59:24;2.83;;;2.05;;
38435;SDS011;24220;48.168;14.024;2023-04-03T14:04:30;3.58;;;2.45;;
38435;SDS011;24220;48.168;14.024;2023-04-03T14:06:59;3.35;;;2.10;;
38435;SDS011;24220;48.168;14.024;2023-04-03T14:09:27;4.03;;;2.10;;
38435;SDS011;24220;48.168;14.024;2023-04-03T14:11:58;3.65;;;2.03;;
38435;SDS011;24220;48.168;14.024;2023-04-03T14:14:46;2.35;;;1.67;;
38435;SDS011;24220;48.168;14.024;2023-04-03T14:17:17;2.70;;;2.17;;
38435;SDS011;24220;48.168;14.024;2023-04-03T14:19:51;2.30;;;2.05;;
38435;SDS011;24220;48.168;14.024;2023-04-03T14:22:24;2.63;;;2.00;;
38435;SDS011;24220;48.168;14.024;2023-04-03T14:24:55;2.60;;;1.90;;
38435;SDS011;24220;48.168;14.024;2023-04-03T14:27:29;3.58;;;2.20;;
38435;SDS011;24220;48.168;14.024;2023-04-03T14:30:01;2.75;;;2.30;;
38435;SDS011;24220;48.168;14.024;2023-04-03T14:32:30;3.97;;;2.28;;
38435;SDS011;24220;48.168;14.024;2023-04-03T14:34:58;4.28;;;1.88;;
38435;SDS011;24220;48.168;14.024;2023-04-03T14:37:28;3.45;;;2.17;;
38435;SDS011;24220;48.168;14.024;2023-04-03T14:39:58;2.85;;;1.95;;
38435;SDS011;24220;48.168;14.024;2023-04-03T14:42:28;2.03;;;1.83;;
38435;SDS011;24220;48.168;14.024;2023-04-03T14:45:08;3.03;;;2.20;;
38435;SDS011;24220;48.168;14.024;2023-04-03T14:47:42;2.22;;;2.03;;
38435;SDS011;24220;48.168;14.024;2023-04-03T14:50:15;2.67;;;2.10;;
38435;SDS011;24220;48.168;14.024;2023-04-03T14:52:44;4.50;;;2.20;;
38435;SDS011;24220;48.168;14.024;2023-04-03T14:55:12;3.15;;;2.22;;
38435;SDS011;24220;48.168;14.024;2023-04-03T14:57:47;2.90;;;2.15;;
38435;SDS011;24220;48.168;14.024;2023-04-03T15:00:18;3.28;;;2.35;;
38435;SDS011;24220;48.168;14.024;2023-04-03T15:02:47;2.83;;;2.00;;
38435;SDS011;24220;48.168;14.024;2023-04-03T15:05:19;4.88;;;1.98;;
38435;SDS011;24220;48.168;14.024;2023-04-03T15:07:48;2.72;;;2.20;;
38435;SDS011;24220;48.168;14.024;2023-04-03T15:12:50;2.40;;;2.03;;
38435;SDS011;24220;48.168;14.024;2023-04-03T15:15:19;3.67;;;2.40;;
38435;SDS011;24220;48.168;14.024;2023-04-03T15:17:51;3.72;;;2.28;;
38435;SDS011;24220;48.168;14.024;2023-04-03T15:20:25;3.70;;;2.35;;
38435;SDS011;24220;48.168;14.024;2023-04-03T15:22:57;2.58;;;2.17;;
38435;SDS011;24220;48.168;14.024;2023-04-03T15:25:27;2.50;;;2.10;;
38435;SDS011;24220;48.168;14.024;2023-04-03T15:27:58;2.93;;;2.37;;
38435;SDS011;24220;48.168;14.024;2023-04-03T15:30:30;3.33;;;2.35;;
38435;SDS011;24220;48.168;14.024;2023-04-03T15:32:57;3.28;;;2.55;;
38435;SDS011;24220;48.168;14.024;2023-04-03T15:35:25;3.17;;;2.10;;
38435;SDS011;24220;48.168;14.024;2023-04-03T15:37:54;2.63;;;2.03;;
38435;SDS011;24220;48.168;14.024;2023-04-03T15:40:22;4.43;;;2.17;;
38435;SDS011;24220;48.168;14.024;2023-04-03T15:42:52;3.08;;;2.00;;
38435;SDS011;24220;48.168;14.024;2023-04-03T15:45:20;2.95;;;2.00;;
38435;SDS011;24220;48.168;14.024;2023-04-03T15:47:49;2.85;;;2.22;;
38435;SDS011;24220;48.168;14.024;2023-04-03T15:50:18;4.10;;;2.05;;
38435;SDS011;24220;48.168;14.024;2023-04-03T15:52:45;5.80;;;2.25;;
38435;SDS011;24220;48.168;14.024;2023-04-03T15:55:21;3.45;;;2.50;;
38435;SDS011;24220;48.168;14.024;2023-04-03T15:57:49;3.55;;;2.38;;
38435;SDS011;24220;48.168;14.024;2023-04-03T16:00:17;3.40;;;2.00;;
38435;SDS011;24220;48.168;14.024;2023-04-03T16:02:50;3.20;;;2.20;;
38435;SDS011;24220;48.168;14.024;2023-04-03T16:05:20;3.28;;;2.22;;
38435;SDS011;24220;48.168;14.024;2023-04-03T16:07:47;4.35;;;3.10;;
38435;SDS011;24220;48.168;14.024;2023-04-03T16:10:17;3.08;;;2.55;;
38435;SDS011;24220;48.168;14.024;2023-04-03T16:12:45;2.60;;;2.22;;
38435;SDS011;24220;48.168;14.024;2023-04-03T16:15:12;4.63;;;2.20;;
38435;SDS011;24220;48.168;14.024;2023-04-03T16:17:40;3.35;;;2.50;;
38435;SDS011;24220;48.168;14.024;2023-04-03T16:20:12;4.05;;;2.38;;
38435;SDS011;24220;48.168;14.024;2023-04-03T16:22:40;5.07;;;2.45;;
38435;SDS011;24220;48.168;14.024;2023-04-03T16:25:08;2.70;;;2.10;;
38435;SDS011;24220;48.168;14.024;2023-04-03T16:27:36;2.92;;;2.53;;
38435;SDS011;24220;48.168;14.024;2023-04-03T16:30:05;3.72;;;2.35;;
38435;SDS011;24220;48.168;14.024;2023-04-03T16:32:33;3.38;;;2.22;;
38435;SDS011;24220;48.168;14.024;2023-04-03T16:35:01;2.92;;;2.40;;
38435;SDS011;24220;48.168;14.024;2023-04-03T16:37:29;4.25;;;2.55;;
38435;SDS011;24220;48.168;14.024;2023-04-03T16:39:58;3.60;;;2.70;;
38435;SDS011;24220;48.168;14.024;2023-04-03T16:42:29;2.80;;;2.50;;
38435;SDS011;24220;48.168;14.024;2023-04-03T16:44:56;4.30;;;2.38;;
38435;SDS011;24220;48.168;14.024;2023-04-03T16:47:25;3.15;;;2.40;;
38435;SDS011;24220;48.168;14.024;2023-04-03T16:49:52;3.83;;;2.47;;
38435;SDS011;24220;48.168;14.024;2023-04-03T16:52:20;3.33;;;2.40;;
38435;SDS011;24220;48.168;14.024;2023-04-03T16:54:49;5.05;;;2.60;;